Latest Weather Observations for Taree Airport

IDN60801

Issued at 6:03 am EDT Wednesday 22 November 2017 (issued every 30 minutes, with the page automatically refreshed every 10 minutes)

About weather observations | Map of weather stations | Latest weather observations for NSW | Other Formats
Station Details ID: 060141 Name: TAREE AIRPORT AWS Lat: -31.89 Lon: 152.51 Height: 8.0 m
Data from the previous 72 hours. | See also: Recent months at Taree Airport
Date/Time
EDT
Temp
°C
App
Temp
°C
Dew
Point
°C
Rel
Hum
%
Delta-T
°C
Wind Press
QNH
hPa
Press
MSL
hPa
Rain since
9am
mm
Dir  Spd
km/h
Gust
km/h
Spd
kts
Gust
kts
22/06:00am 15.0 14.8 14.8 99 0.1 W 9 11 5 6 1019.6 1019.6 6.0
22/05:30am 15.0 13.7 14.8 99 0.1 WNW 15 17 8 9 1019.3 1019.3 6.0
22/05:28am 15.0 14.1 14.8 99 0.1 WNW 13 17 7 9 1019.3 1019.3 6.0
22/05:00am 15.2 15.1 15.0 99 0.1 NW 9 9 5 5 1019.6 1019.6 5.6
22/04:31am 14.9 13.6 14.7 99 0.1 E 15 22 8 12 1019.5 1019.5 1.4
22/04:30am 14.8 13.4 14.6 99 0.1 E 15 22 8 12 1019.5 1019.5 1.2
22/04:00am 14.6 15.6 14.4 99 0.1 NW 2 6 1 3 1019.1 1019.1 0.4
22/03:30am 14.7 14.8 14.5 99 0.1 NW 7 9 4 5 1019.1 1019.1 0.4
22/03:00am 14.8 14.5 14.3 97 0.3 WNW 9 11 5 6 1019.2 1019.2 0.2
22/02:30am 14.9 15.0 14.4 97 0.3 WNW 7 9 4 5 1019.5 1019.5 0.2
22/02:00am 15.1 15.3 14.8 98 0.2 W 7 9 4 5 1019.9 1019.9 0.0
22/01:30am 14.8 14.9 14.5 98 0.2 NNW 7 9 4 5 1020.2 1020.2 0.0
22/01:00am 15.0 16.4 14.4 96 0.3 CALM 0 0 0 0 1020.5 1020.5 0.0
22/12:30am 15.0 16.2 13.7 92 0.7 CALM 0 6 0 3 1020.8 1020.8 0.0
22/12:00am 16.1 15.9 14.8 92 0.7 NW 9 9 5 5 1021.0 1021.0 0.0
 
Date/Time
EDT
Temp
°C
App
Temp
°C
Dew
Point
°C
Rel
Hum
%
Delta-T
°C
Wind Press
QNH
hPa
Press
MSL
hPa
Rain since
9am
mm
Dir  Spd
km/h
Gust
km/h
Spd
kts
Gust
kts
21/11:30pm 15.7 15.4 14.4 92 0.7 NW 9 11 5 6 1021.3 1021.3 0.0
21/11:00pm 16.6 17.0 15.3 92 0.8 WSW 7 9 4 5 1021.8 1021.8 0.0
21/10:30pm 16.8 16.7 15.0 89 1.0 NW 9 9 5 5 1021.7 1021.7 0.0
21/10:00pm 17.5 17.9 15.3 87 1.3 WSW 7 9 4 5 1021.8 1021.8 0.0
21/09:30pm 17.5 17.2 15.5 88 1.2 S 11 15 6 8 1022.0 1022.0 0.0
21/09:00pm 17.1 16.7 15.3 89 1.0 SSW 11 13 6 7 1022.0 1022.0 0.0
21/08:30pm 16.5 17.0 14.9 90 0.9 NNE 6 9 3 5 1021.9 1021.9 0.0
21/08:00pm 17.6 16.8 15.2 86 1.4 NE 13 17 7 9 1021.8 1021.8 0.0
21/07:30pm 18.8 17.7 14.3 75 2.6 SSE 13 15 7 8 1021.6 1021.6 0.0
21/07:00pm 19.0 17.0 15.5 80 2.1 SE 20 30 11 16 1021.4 1021.4 0.0
21/06:30pm 19.6 16.1 14.4 72 3.0 SSE 26 33 14 18 1021.2 1021.2 0.0
21/06:00pm 20.7 17.1 12.9 61 4.4 SSE 24 32 13 17 1021.0 1021.0 0.0
21/05:30pm 21.0 18.4 13.9 64 4.1 SSE 20 28 11 15 1020.8 1020.8 0.0
21/05:00pm 21.4 18.7 13.6 61 4.5 SSE 20 28 11 15 1020.7 1020.7 0.0
21/04:30pm 21.2 18.7 13.6 62 4.4 SSE 19 26 10 14 1020.9 1020.9 0.0
21/04:00pm 21.4 18.7 13.6 61 4.5 SE 20 28 11 15 1021.0 1021.0 0.0
21/03:30pm 20.8 16.8 14.2 66 3.8 SSE 28 33 15 18 1021.3 1021.3 0.0
21/03:00pm 21.1 17.7 14.7 67 3.7 SSE 26 35 14 19 1021.6 1021.6 0.0
21/02:30pm 21.2 17.2 14.1 64 4.1 SSE 28 35 15 19 1021.7 1021.7 0.0
21/02:00pm 21.9 17.4 13.8 60 4.7 SE 30 41 16 22 1021.9 1021.9 0.0
21/01:30pm 22.8 19.8 12.7 53 5.8 SE 20 30 11 16 1022.0 1022.0 0.0
21/01:00pm 22.3 19.8 13.4 57 5.1 SSE 19 32 10 17 1022.4 1022.4 0.0
21/12:30pm 22.5 19.7 12.7 54 5.6 SE 19 26 10 14 1022.5 1022.5 0.0
21/12:00pm 22.3 19.3 12.5 53 5.5 SSE 20 28 11 15 1022.8 1022.8 0.0
21/11:30am 23.0 20.2 13.2 54 5.7 SSE 20 30 11 16 1022.9 1022.9 0.0
21/11:00am 23.0 20.4 12.0 50 6.2 SE 17 26 9 14 1023.0 1023.0 0.0
21/10:30am 22.6 20.2 12.5 53 5.7 ESE 17 26 9 14 1023.1 1023.1 0.0
21/10:00am 21.4 18.1 10.9 51 5.7 SE 19 30 10 16 1023.2 1023.2 0.0
21/09:30am 21.4 19.0 13.8 62 4.4 SSE 19 26 10 14 1023.1 1023.1 0.0
21/09:00am 21.2 18.4 13.1 60 4.6 SE 20 28 11 15 1023.1 1023.1 0.6
21/08:30am 20.7 19.8 14.8 69 3.5 S 13 19 7 10 1023.2 1023.2 0.6
21/08:00am 19.3 18.9 14.1 72 3.0 S 9 15 5 8 1023.2 1023.2 0.6
21/07:30am 18.8 18.3 13.9 73 2.8 SSW 9 13 5 7 1022.9 1022.9 0.6
21/07:00am 17.8 17.8 14.1 79 2.1 W 7 7 4 4 1022.7 1022.7 0.6
21/06:30am 16.7 16.7 14.2 85 1.4 NNE 7 9 4 5 1022.4 1022.4 0.6
21/06:00am 16.9 16.0 13.8 82 1.7 SSW 11 15 6 8 1022.0 1022.0 0.6
21/05:30am 16.8 15.6 13.9 83 1.6 SSW 13 15 7 8 1021.8 1021.8 0.6
21/05:00am 17.1 15.9 14.0 82 1.8 SSW 13 19 7 10 1021.5 1021.5 0.6
21/04:30am 17.0 17.2 14.8 87 1.3 W 7 9 4 5 1021.6 1021.6 0.6
21/04:00am 16.6 16.7 14.4 87 1.3 E 7 9 4 5 1021.7 1021.7 0.6
21/03:30am 16.9 15.9 14.5 86 1.4 WSW 13 17 7 9 1021.6 1021.6 0.6
21/03:00am 16.8 16.1 14.3 85 1.4 W 11 15 6 8 1021.9 1021.9 0.6
21/02:30am 16.7 16.4 14.3 86 1.4 W 9 11 5 6 1021.9 1021.9 0.6
21/02:00am 16.5 15.8 14.2 86 1.3 WSW 11 13 6 7 1022.1 1022.1 0.6
21/01:30am 16.6 16.2 14.2 86 1.4 WSW 9 13 5 7 1022.4 1022.4 0.6
21/01:00am 16.4 15.6 14.1 86 1.3 SW 11 13 6 7 1022.8 1022.8 0.6
21/12:30am 16.8 16.5 14.3 85 1.4 SW 9 11 5 6 1023.1 1023.1 0.6
21/12:00am 17.2 16.7 13.9 81 1.9 SSW 9 11 5 6 1023.4 1023.4 0.6
 
Date/Time
EDT
Temp
°C
App
Temp
°C
Dew
Point
°C
Rel
Hum
%
Delta-T
°C
Wind Press
QNH
hPa
Press
MSL
hPa
Rain since
9am
mm
Dir  Spd
km/h
Gust
km/h
Spd
kts
Gust
kts
20/11:30pm 17.8 17.4 14.1 79 2.1 S 9 11 5 6 1023.4 1023.4 0.6
20/11:00pm 18.5 17.8 14.4 77 2.4 S 11 15 6 8 1023.5 1023.5 0.6
20/10:30pm 18.6 18.0 14.5 77 2.4 S 11 15 6 8 1023.6 1023.6 0.6
20/10:00pm 18.9 17.5 14.6 76 2.5 SSE 15 19 8 10 1023.7 1023.7 0.6
20/09:30pm 19.0 18.2 15.1 78 2.3 SSE 13 19 7 10 1023.6 1023.6 0.6
20/09:00pm 18.8 18.0 15.1 79 2.2 SSE 13 15 7 8 1023.4 1023.4 0.6
20/08:30pm 19.0 18.9 14.9 77 2.4 S 9 13 5 7 1023.2 1023.2 0.6
20/08:00pm 19.5 19.0 15.0 75 2.6 SSE 11 15 6 8 1023.1 1023.1 0.6
20/07:30pm 19.8 19.1 15.4 76 2.6 SSE 13 15 7 8 1022.9 1022.9 0.6
20/07:00pm 19.9 18.8 15.3 75 2.7 SSE 15 20 8 11 1022.9 1022.9 0.6
20/06:30pm 20.3 18.4 15.3 73 3.0 SE 19 24 10 13 1022.7 1022.7 0.6
20/06:00pm 21.0 19.1 15.8 72 3.1 SE 20 30 11 16 1022.4 1022.4 0.6
20/05:30pm 21.1 19.5 15.9 72 3.1 SE 19 26 10 14 1022.3 1022.3 0.6
20/05:00pm 20.3 18.8 15.3 73 2.9 SE 17 24 9 13 1022.5 1022.5 0.6
20/04:30pm 20.8 20.1 15.4 71 3.2 SE 13 17 7 9 1022.6 1022.6 0.6
20/04:00pm 21.1 19.7 13.5 62 4.4 SE 13 17 7 9 1022.5 1022.5 0.6
20/03:30pm 20.5 19.4 14.2 67 3.7 SE 13 19 7 10 1022.9 1022.9 0.6
20/03:00pm 19.0 18.2 16.0 83 1.8 SE 15 22 8 12 1023.3 1023.3 0.6
20/02:40pm 18.1 17.9 15.7 86 1.4 E 11 17 6 9 1023.8 1023.8 0.6
20/02:30pm 18.2 18.5 16.9 92 0.8 ESE 11 17 6 9 1023.9 1023.9 0.6
20/02:12pm 17.8 16.0 15.4 86 1.4 SSE 19 28 10 15 1024.1 1024.1 0.6
20/02:00pm 19.0 17.8 16.0 83 1.8 SSE 17 24 9 13 1024.0 1024.0 0.4
20/01:30pm 19.3 20.5 15.0 76 2.5 SW 2 9 1 5 1024.0 1024.0 0.4
20/01:09pm 18.6 19.3 15.5 82 1.8 SSW 6 13 3 7 1024.1 1024.1 0.4
20/01:00pm 18.2 19.6 16.4 89 1.1 ESE 4 11 2 6 1024.2 1024.2 0.4
20/12:41pm 18.0 17.3 15.3 84 1.6 ENE 13 20 7 11 1024.5 1024.5 0.0
20/12:30pm 18.5 17.0 15.2 81 1.9 E 17 24 9 13 1024.5 1024.5 0.0
20/12:00pm 19.8 16.9 15.2 75 2.7 E 24 33 13 18 1024.4 1024.4 0.0
20/11:30am 21.3 18.6 13.5 61 4.5 SE 20 28 11 15 1024.2 1024.2 0.0
20/11:00am 21.4 18.2 13.1 59 4.7 SSE 22 32 12 17 1024.2 1024.2 0.0
20/10:30am 21.4 20.3 13.1 59 4.7 ESE 11 17 6 9 1024.1 1024.1 0.0
20/10:00am 21.4 19.2 14.3 64 4.1 SE 19 28 10 15 1024.0 1024.0 0.0
20/09:30am 20.9 18.7 14.3 66 3.8 SSE 19 26 10 14 1023.8 1023.8 0.0
20/09:00am 20.8 19.1 14.7 68 3.6 S 17 26 9 14 1023.9 1023.9 0.2
20/08:30am 19.0 19.3 15.9 82 1.8 WNW 9 11 5 6 1023.9 1023.9 0.2
20/08:00am 18.1 18.9 16.4 90 1.0 WNW 7 11 4 6 1023.6 1023.6 0.2
20/07:30am 17.6 18.1 15.6 88 1.2 SW 7 11 4 6 1023.3 1023.3 0.2
20/07:00am 17.0 17.1 15.5 91 0.9 WSW 9 11 5 6 1022.7 1022.7 0.2
20/06:30am 16.5 17.2 15.5 94 0.6 NW 6 9 3 5 1022.6 1022.6 0.2
20/06:00am 16.7 16.6 14.9 89 1.0 WSW 9 11 5 6 1022.3 1022.3 0.0
20/05:30am 16.1 16.3 14.8 92 0.7 WNW 7 9 4 5 1021.9 1021.9 0.0
20/05:00am 16.7 17.0 14.9 89 1.0 SW 7 11 4 6 1021.6 1021.6 0.0
20/04:30am 16.2 16.0 14.7 91 0.9 SW 9 11 5 6 1021.5 1021.5 0.0
20/04:00am 16.5 15.7 15.0 91 0.9 SW 13 15 7 8 1021.5 1021.5 0.0
20/03:30am 16.1 16.2 15.5 96 0.3 WSW 9 11 5 6 1021.5 1021.5 0.0
20/03:00am 15.8 15.4 15.2 96 0.3 WSW 11 11 6 6 1021.5 1021.5 0.0
20/02:30am 16.1 16.1 15.3 95 0.5 WSW 9 9 5 5 1021.6 1021.6 0.0
20/02:00am 16.0 16.4 15.2 95 0.5 W 7 9 4 5 1021.8 1021.8 0.0
20/01:30am 16.0 16.0 15.2 95 0.5 WSW 9 11 5 6 1021.9 1021.9 0.0
20/01:00am 15.8 16.1 15.0 95 0.5 NW 7 9 4 5 1022.1 1022.1 0.0
20/12:30am 15.8 16.2 15.3 97 0.3 NW 7 9 4 5 1022.4 1022.4 0.0
20/12:00am 15.6 15.3 14.5 93 0.6 N 9 17 5 9 1022.6 1022.6 0.0
 
Date/Time
EDT
Temp
°C
App
Temp
°C
Dew
Point
°C
Rel
Hum
%
Delta-T
°C
Wind Press
QNH
hPa
Press
MSL
hPa
Rain since
9am
mm
Dir  Spd
km/h
Gust
km/h
Spd
kts
Gust
kts
19/11:30pm 16.7 16.8 15.4 92 0.8 W 9 11 5 6 1022.8 1022.8 0.0
19/11:00pm 16.7 17.1 15.4 92 0.8 W 7 9 4 5 1022.8 1022.8 0.0
19/10:30pm 16.8 17.4 15.3 91 0.9 WNW 6 7 3 4 1022.8 1022.8 0.0
19/10:00pm 16.9 17.3 15.2 90 1.0 W 7 9 4 5 1023.0 1023.0 0.0
19/09:30pm 16.9 17.0 15.4 91 0.9 NW 9 9 5 5 1022.8 1022.8 0.0
19/09:00pm 16.8 17.4 15.2 90 0.9 NNW 6 7 3 4 1022.4 1022.4 0.0
19/08:30pm 17.2 17.6 15.4 89 1.1 NNE 7 9 4 5 1022.2 1022.2 0.0
19/08:00pm 17.7 17.3 15.3 86 1.4 NE 11 13 6 7 1022.1 1022.1 0.0
19/07:30pm 18.9 18.7 15.8 82 1.8 E 11 15 6 8 1022.0 1022.0 0.0
19/07:00pm 19.0 18.5 15.9 82 1.8 E 13 17 7 9 1021.7 1021.7 0.0
19/06:30pm 19.8 17.9 15.7 77 2.4 SE 20 32 11 17 1021.3 1021.3 0.0
19/06:00pm 20.5 18.1 15.5 73 3.0 SE 22 33 12 18 1021.0 1021.0 0.0
19/05:30pm 21.0 18.3 15.5 71 3.3 SE 24 33 13 18 1020.9 1020.9 0.0
19/05:00pm 21.7 18.6 15.5 68 3.7 SE 26 33 14 18 1020.7 1020.7 0.0
19/04:30pm 21.7 18.1 13.1 58 4.9 SE 24 32 13 17 1020.8 1020.8 0.0
19/04:00pm 22.0 17.6 12.8 56 5.2 SSE 28 35 15 19 1020.8 1020.8 0.0
19/03:30pm 22.4 18.7 14.0 59 4.9 SE 26 37 14 20 1020.9 1020.9 0.0
19/03:00pm 22.7 19.5 14.3 59 4.9 SE 24 33 13 18 1021.1 1021.1 0.0
19/02:30pm 23.4 20.4 13.8 54 5.6 SE 22 33 12 18 1021.3 1021.3 0.0
19/02:00pm 23.2 19.6 13.1 53 5.8 SE 24 33 13 18 1021.4 1021.4 0.0
19/01:30pm 23.2 19.2 11.9 49 6.4 SE 24 33 13 18 1021.4 1021.4 0.0
19/01:00pm 22.6 18.7 12.0 51 6.0 SE 24 30 13 16 1021.6 1021.6 0.0
19/12:30pm 22.7 20.8 14.3 59 4.9 ESE 17 28 9 15 1021.9 1021.9 0.0
19/12:00pm 21.0 19.1 15.3 70 3.4 SSE 19 26 10 14 1022.1 1022.1 0.0
19/11:30am 20.3 20.4 15.5 74 2.8 SW 9 17 5 9 1022.4 1022.4 0.0
19/11:25am 20.1 19.7 15.3 74 2.8 SW 11 17 6 9 1022.4 1022.4 0.0
19/11:00am 19.5 19.0 16.0 80 2.1 SW 13 17 7 9 1022.6 1022.6 0.0
19/10:46am 19.0 18.7 16.4 85 1.6 SW 13 17 7 9 1022.6 1022.6 0.0
19/10:30am 18.9 18.8 16.9 88 1.2 SW 13 17 7 9 1022.4 1022.4 0.0
19/10:00am 18.3 18.4 15.6 84 1.6 WNW 9 11 5 6 1022.2 1022.2 0.0
19/09:30am 17.9 18.8 16.1 89 1.1 NE 6 9 3 5 1022.1 1022.1 0.0
19/09:00am 17.9 18.0 15.5 86 1.4 SE 9 11 5 6 1022.2 1022.2 4.8
19/08:30am 17.9 17.4 14.8 82 1.8 SSE 11 13 6 7 1022.0 1022.0 4.8
19/08:00am 17.4 17.5 16.4 94 0.6 SW 11 15 6 8 1021.6 1021.6 4.8
19/07:30am 17.0 16.8 16.7 98 0.2 SW 13 15 7 8 1021.1 1021.1 4.8
19/07:00am 16.6 17.4 16.3 98 0.2 WNW 7 9 4 5 1020.5 1020.5 4.8
19/06:30am 16.3 17.0 16.1 99 0.1 NNW 7 9 4 5 1020.2 1020.2 4.8

Other Formats:

Comma delimited format used in spreadsheet applications
http://www.bom.gov.au/fwo/IDN60801/IDN60801.95784.axf

JavaScript Object Notation format (JSON) in row-major order
http://www.bom.gov.au/fwo/IDN60801/IDN60801.95784.json